createdAt,value
2023-05-05T00:00:58.757Z,3.60
2023-05-05T00:03:26.172Z,3.50
2023-05-05T00:05:57.639Z,3.57
2023-05-05T00:08:24.975Z,3.57
2023-05-05T00:10:53.172Z,3.47
2023-05-05T00:13:21.116Z,3.40
2023-05-05T00:15:50.483Z,3.63
2023-05-05T00:18:18.557Z,3.77
2023-05-05T00:20:47.767Z,3.33
2023-05-05T00:23:15.558Z,3.43
2023-05-05T00:25:42.383Z,3.20
2023-05-05T00:28:09.261Z,3.87
2023-05-05T00:30:37.557Z,3.47
2023-05-05T00:33:04.428Z,3.77
2023-05-05T00:35:31.361Z,3.73
2023-05-05T00:37:58.424Z,4.40
2023-05-05T00:40:25.577Z,4.07
2023-05-05T00:42:52.595Z,3.93
2023-05-05T00:45:20.234Z,3.77
2023-05-05T00:47:49.870Z,4.07
2023-05-05T00:50:27.751Z,4.40
2023-05-05T00:52:59.022Z,3.93
2023-05-05T00:55:26.313Z,4.33
2023-05-05T00:57:53.620Z,5.07
2023-05-05T01:00:20.543Z,4.80
2023-05-05T01:02:47.368Z,5.40
2023-05-05T01:05:16.491Z,5.10
2023-05-05T01:07:43.478Z,6.10
2023-05-05T01:10:31.832Z,5.50
2023-05-05T01:13:22.688Z,5.37
2023-05-05T01:16:01.570Z,5.67
2023-05-05T01:18:56.687Z,4.67
2023-05-05T01:21:32.973Z,4.63
2023-05-05T01:24:17.427Z,4.13
2023-05-05T01:26:55.700Z,3.97
2023-05-05T01:29:31.470Z,4.50
2023-05-05T01:32:04.389Z,4.27
2023-05-05T01:34:37.326Z,3.83
2023-05-05T01:37:23.069Z,3.73
2023-05-05T01:39:52.994Z,3.87
2023-05-05T01:42:22.532Z,3.97
2023-05-05T01:44:50.281Z,3.70
2023-05-05T01:47:19.655Z,3.50
2023-05-05T01:49:47.974Z,3.13
2023-05-05T01:52:16.372Z,3.40
2023-05-05T01:54:45.333Z,3.63
2023-05-05T01:57:14.769Z,3.53
2023-05-05T01:59:41.558Z,3.00
2023-05-05T02:02:12.030Z,3.20
2023-05-05T02:04:42.310Z,3.23
2023-05-05T02:07:12.815Z,3.20
2023-05-05T02:09:40.972Z,3.20
2023-05-05T02:12:08.860Z,3.40
2023-05-05T02:14:37.281Z,3.40
2023-05-05T02:17:04.575Z,3.13
2023-05-05T02:19:36.515Z,3.30
2023-05-05T02:22:03.442Z,2.80
2023-05-05T02:24:31.071Z,3.00
2023-05-05T02:26:59.667Z,3.37
2023-05-05T02:29:34.363Z,3.00
2023-05-05T02:32:09.845Z,3.37
2023-05-05T02:34:40.430Z,3.67
2023-05-05T02:37:11.325Z,3.37
2023-05-05T02:39:59.240Z,3.50
2023-05-05T02:42:30.203Z,3.23
2023-05-05T02:45:01.649Z,3.53
2023-05-05T02:47:35.487Z,3.43
2023-05-05T02:50:03.757Z,3.27
2023-05-05T02:52:30.596Z,3.37
2023-05-05T02:54:57.517Z,2.83
2023-05-05T02:57:35.915Z,3.00
2023-05-05T03:00:10.425Z,3.00
2023-05-05T03:03:02.780Z,3.60
2023-05-05T03:05:41.603Z,3.67
2023-05-05T03:08:17.076Z,3.43
2023-05-05T03:10:53.506Z,3.50
2023-05-05T03:13:20.911Z,3.37
2023-05-05T03:15:51.664Z,3.23
2023-05-05T03:18:20.196Z,3.40
2023-05-05T03:20:47.636Z,3.60
2023-05-05T03:23:14.788Z,3.47
2023-05-05T03:25:45.810Z,3.50
2023-05-05T03:28:13.475Z,3.57
2023-05-05T03:30:40.634Z,3.50
2023-05-05T03:33:08.625Z,3.50
2023-05-05T03:35:35.482Z,3.47
2023-05-05T03:38:02.295Z,3.57
2023-05-05T03:40:40.319Z,3.60
2023-05-05T03:43:10.064Z,3.53
2023-05-05T03:45:36.880Z,3.93
2023-05-05T03:48:03.783Z,3.43
2023-05-05T03:50:30.579Z,3.93
2023-05-05T03:52:57.315Z,3.73
2023-05-05T03:55:24.728Z,3.40
2023-05-05T03:57:51.600Z,3.53
2023-05-05T04:00:18.782Z,3.50
2023-05-05T04:02:45.670Z,3.57
2023-05-05T04:05:12.503Z,3.20
2023-05-05T04:07:39.347Z,3.30
2023-05-05T04:10:07.299Z,4.07
2023-05-05T04:12:37.279Z,4.03
2023-05-05T04:15:04.588Z,3.70
2023-05-05T04:17:31.396Z,3.73
2023-05-05T04:19:58.247Z,3.57
2023-05-05T04:22:25.007Z,3.83
2023-05-05T04:24:51.896Z,3.73
2023-05-05T04:27:18.720Z,3.37
2023-05-05T04:29:45.544Z,3.50
2023-05-05T04:32:12.293Z,3.90
2023-05-05T04:34:39.001Z,3.53
2023-05-05T04:37:05.740Z,3.37
2023-05-05T04:39:32.533Z,3.53
2023-05-05T04:41:59.290Z,4.07
2023-05-05T04:44:26.592Z,3.70
2023-05-05T04:46:53.933Z,4.20
2023-05-05T04:49:20.709Z,3.50
2023-05-05T04:51:47.410Z,3.57
2023-05-05T04:54:14.151Z,4.03
2023-05-05T04:56:41.130Z,3.70
2023-05-05T04:59:07.937Z,3.80
2023-05-05T05:01:36.905Z,4.10
2023-05-05T05:04:05.234Z,4.07
2023-05-05T05:06:32.473Z,4.20
2023-05-05T05:08:59.347Z,4.17
2023-05-05T05:11:26.277Z,4.30
2023-05-05T05:13:53.428Z,4.27
2023-05-05T05:16:20.258Z,3.90
2023-05-05T05:18:47.117Z,4.43
2023-05-05T05:21:14.045Z,3.80
2023-05-05T05:23:40.753Z,4.30
2023-05-05T05:26:07.574Z,3.97
2023-05-05T05:28:34.288Z,4.33
2023-05-05T05:31:00.994Z,4.03
2023-05-05T05:33:27.738Z,4.20
2023-05-05T05:35:54.493Z,4.27
2023-05-05T05:38:21.339Z,4.60
2023-05-05T05:40:48.078Z,4.17
2023-05-05T05:43:14.926Z,4.10
2023-05-05T05:45:41.879Z,3.73
2023-05-05T05:48:08.905Z,4.60
2023-05-05T05:50:36.146Z,3.73
2023-05-05T05:53:03.213Z,3.93
2023-05-05T05:55:30.152Z,3.90
2023-05-05T05:57:56.918Z,4.20
2023-05-05T06:00:23.876Z,4.20
2023-05-05T06:02:51.887Z,4.20
2023-05-05T06:05:18.868Z,4.07
2023-05-05T06:07:45.562Z,3.80
2023-05-05T06:10:26.491Z,4.23
2023-05-05T06:12:54.516Z,4.40
2023-05-05T06:15:21.544Z,4.20
2023-05-05T06:17:48.270Z,4.50
2023-05-05T06:20:15.275Z,3.77
2023-05-05T06:22:42.088Z,4.37
2023-05-05T06:25:09.162Z,4.57
2023-05-05T06:27:36.300Z,5.13
2023-05-05T06:30:03.215Z,4.93
2023-05-05T06:32:29.966Z,4.80
2023-05-05T06:34:56.828Z,4.57
2023-05-05T06:37:23.568Z,4.40
2023-05-05T06:39:50.326Z,4.90
2023-05-05T06:42:17.221Z,5.50
2023-05-05T06:44:43.984Z,4.70
2023-05-05T06:47:16.437Z,5.30
2023-05-05T06:49:43.334Z,4.87
2023-05-05T06:52:10.118Z,4.80
2023-05-05T06:54:36.914Z,4.87
2023-05-05T06:57:04.244Z,5.00
2023-05-05T06:59:30.976Z,5.20
2023-05-05T07:01:57.754Z,6.00
2023-05-05T07:04:24.865Z,4.70
2023-05-05T07:06:51.695Z,5.57
2023-05-05T07:09:18.820Z,5.17
2023-05-05T07:11:46.618Z,4.50
2023-05-05T07:14:13.341Z,5.03
2023-05-05T07:16:40.175Z,4.87
2023-05-05T07:19:07.140Z,5.23
2023-05-05T07:21:34.474Z,5.43
2023-05-05T07:24:05.903Z,5.20
2023-05-05T07:26:32.907Z,5.53
2023-05-05T07:28:59.706Z,5.77
2023-05-05T07:31:26.847Z,5.30
2023-05-05T07:33:54.005Z,5.30
2023-05-05T07:36:21.055Z,5.90
2023-05-05T07:38:47.814Z,5.57
2023-05-05T07:41:14.855Z,5.00
2023-05-05T07:43:44.205Z,6.13
2023-05-05T07:46:11.924Z,5.73
2023-05-05T07:48:41.644Z,6.70
2023-05-05T07:51:09.114Z,6.57
2023-05-05T07:53:36.008Z,6.47
2023-05-05T07:56:02.990Z,6.63
2023-05-05T07:58:29.742Z,6.73
2023-05-05T08:00:56.502Z,6.50
2023-05-05T08:03:25.121Z,7.30
2023-05-05T08:05:54.675Z,7.73
2023-05-05T08:08:25.093Z,6.30
2023-05-05T08:10:53.364Z,7.23
2023-05-05T08:13:20.666Z,6.77
2023-05-05T08:15:47.732Z,6.77
2023-05-05T08:18:14.680Z,7.53
2023-05-05T08:20:41.499Z,7.60
2023-05-05T08:23:08.210Z,7.07
2023-05-05T08:25:34.918Z,7.47
2023-05-05T08:28:01.792Z,6.83
2023-05-05T08:30:28.690Z,7.40
2023-05-05T08:32:55.646Z,7.13
2023-05-05T08:35:22.506Z,7.87
2023-05-05T08:37:51.801Z,8.00
2023-05-05T08:40:21.332Z,6.97
2023-05-05T08:42:48.493Z,7.40
2023-05-05T08:45:16.069Z,6.90
2023-05-05T08:47:43.691Z,7.10
2023-05-05T08:50:11.676Z,6.90
2023-05-05T08:52:44.671Z,6.80
2023-05-05T08:55:22.210Z,7.30
2023-05-05T08:57:57.195Z,7.20
2023-05-05T09:00:26.650Z,7.20
2023-05-05T09:02:58.478Z,7.47
2023-05-05T09:05:27.311Z,7.00
2023-05-05T09:07:54.192Z,8.23
2023-05-05T09:10:21.159Z,6.97
2023-05-05T09:12:50.308Z,8.10
2023-05-05T09:15:17.318Z,6.70
2023-05-05T09:17:44.378Z,7.50
2023-05-05T09:20:15.047Z,7.53
2023-05-05T09:22:43.802Z,7.50
2023-05-05T09:25:12.575Z,7.10
2023-05-05T09:27:41.975Z,6.20
2023-05-05T09:30:11.193Z,6.40
2023-05-05T09:32:46.528Z,6.40
2023-05-05T09:35:13.685Z,6.30
2023-05-05T09:37:40.452Z,6.30
2023-05-05T09:40:09.390Z,6.37
2023-05-05T09:42:40.189Z,6.37
2023-05-05T09:45:19.015Z,7.10
2023-05-05T09:47:49.407Z,5.93
2023-05-05T09:50:19.178Z,6.07
2023-05-05T09:53:06.722Z,6.23
2023-05-05T09:55:33.597Z,5.77
2023-05-05T09:58:20.282Z,6.30
2023-05-05T10:00:49.449Z,5.80
2023-05-05T10:03:16.907Z,5.60
2023-05-05T10:05:52.741Z,5.90
2023-05-05T10:08:21.402Z,5.57
2023-05-05T10:11:00.739Z,6.20
2023-05-05T10:13:28.261Z,4.97
2023-05-05T10:15:56.764Z,5.20
2023-05-05T10:18:28.787Z,5.50
2023-05-05T10:21:14.609Z,7.00
2023-05-05T10:24:09.627Z,6.87
2023-05-05T10:26:42.091Z,6.43
2023-05-05T10:29:17.977Z,6.37
2023-05-05T10:31:54.467Z,5.77
2023-05-05T10:34:27.363Z,5.77
2023-05-05T10:36:55.364Z,6.50
2023-05-05T10:39:23.999Z,6.27
2023-05-05T10:41:52.443Z,6.00
2023-05-05T10:44:35.915Z,6.10
2023-05-05T10:47:03.966Z,5.80
2023-05-05T10:49:53.265Z,5.93
2023-05-05T10:52:28.212Z,5.70
2023-05-05T10:55:01.954Z,6.83
2023-05-05T10:57:32.411Z,5.20
2023-05-05T10:59:59.221Z,6.00
2023-05-05T11:02:28.823Z,6.07
2023-05-05T11:05:09.627Z,5.90
2023-05-05T11:07:38.052Z,6.13
2023-05-05T11:10:06.920Z,5.57
2023-05-05T11:13:02.162Z,5.67
2023-05-05T11:15:29.378Z,5.80
2023-05-05T11:18:01.515Z,5.97
2023-05-05T11:20:43.688Z,6.70
2023-05-05T11:23:10.456Z,5.70
2023-05-05T11:25:38.139Z,6.40
2023-05-05T11:28:14.948Z,5.23
2023-05-05T11:30:57.928Z,5.70
2023-05-05T11:33:39.182Z,5.77
2023-05-05T11:36:09.721Z,6.30
2023-05-05T11:38:36.422Z,5.73
2023-05-05T11:41:18.625Z,6.37
2023-05-05T11:43:45.488Z,6.63
2023-05-05T11:46:17.102Z,6.33
2023-05-05T11:48:47.930Z,6.10
2023-05-05T11:51:16.354Z,5.97
2023-05-05T11:53:44.458Z,6.37
2023-05-05T11:56:12.451Z,6.47
2023-05-05T11:58:39.314Z,5.67
2023-05-05T12:01:07.707Z,6.07
2023-05-05T12:03:36.563Z,5.00
2023-05-05T12:06:04.927Z,6.03
2023-05-05T12:08:41.737Z,5.10
2023-05-05T12:11:10.547Z,5.50
2023-05-05T12:13:37.572Z,5.40
2023-05-05T12:16:10.536Z,6.20
2023-05-05T12:18:37.560Z,6.77
2023-05-05T12:21:20.036Z,4.13
2023-05-05T12:23:46.985Z,4.20
2023-05-05T12:26:29.288Z,4.03
2023-05-05T12:28:57.484Z,4.50
2023-05-05T12:31:37.452Z,4.97
2023-05-05T12:34:05.502Z,4.17
2023-05-05T12:36:36.784Z,4.57
2023-05-05T12:39:05.556Z,4.97
2023-05-05T12:41:33.525Z,4.07
2023-05-05T12:44:01.877Z,4.40
2023-05-05T12:46:29.868Z,3.57
2023-05-05T12:49:05.578Z,3.10
2023-05-05T12:51:36.961Z,3.93
2023-05-05T12:54:11.230Z,3.70
2023-05-05T12:56:48.234Z,2.37
2023-05-05T12:59:24.241Z,2.93
2023-05-05T13:01:55.888Z,3.20
2023-05-05T13:04:24.415Z,2.30
2023-05-05T13:07:10.217Z,2.07
2023-05-05T13:09:37.040Z,7.37
2023-05-05T13:12:04.611Z,1.70
2023-05-05T13:14:35.214Z,1.80
2023-05-05T13:17:02.211Z,3.80
2023-05-05T13:19:29.212Z,3.53
2023-05-05T13:21:57.159Z,3.50
2023-05-05T13:24:38.160Z,2.10
2023-05-05T13:27:12.005Z,2.07
2023-05-05T13:29:39.292Z,1.70
2023-05-05T13:32:06.166Z,1.80
2023-05-05T13:34:33.052Z,4.83
2023-05-05T13:36:59.883Z,1.50
2023-05-05T13:39:26.771Z,1.90
2023-05-05T13:41:53.902Z,2.50
2023-05-05T13:44:20.864Z,2.20
2023-05-05T13:46:48.012Z,2.17
2023-05-05T13:49:14.872Z,2.00
2023-05-05T13:51:42.196Z,1.90
2023-05-05T13:54:09.934Z,2.20
2023-05-05T13:56:36.906Z,2.13
2023-05-05T13:59:03.967Z,1.80
2023-05-05T14:01:30.887Z,2.00
2023-05-05T14:03:58.096Z,2.00
2023-05-05T14:06:25.362Z,2.17
2023-05-05T14:08:52.308Z,1.90
2023-05-05T14:11:20.951Z,2.00
2023-05-05T14:13:48.330Z,1.83
2023-05-05T14:16:15.697Z,2.53
2023-05-05T14:18:42.706Z,2.30
2023-05-05T14:21:10.032Z,2.10
2023-05-05T14:23:36.843Z,2.10
2023-05-05T14:26:03.836Z,1.80
2023-05-05T14:28:30.937Z,1.90
2023-05-05T14:30:57.899Z,2.20
2023-05-05T14:33:24.738Z,2.23
2023-05-05T14:35:51.603Z,2.67
2023-05-05T14:38:18.537Z,2.13
2023-05-05T14:40:45.361Z,2.77
2023-05-05T14:43:12.100Z,2.10
2023-05-05T14:45:38.862Z,2.87
2023-05-05T14:48:05.773Z,3.07
2023-05-05T14:50:32.712Z,2.70
2023-05-05T14:52:59.437Z,2.57
2023-05-05T14:55:26.687Z,2.80
2023-05-05T14:57:53.463Z,2.93
2023-05-05T15:00:20.707Z,2.70
2023-05-05T15:02:48.640Z,2.93
2023-05-05T15:05:15.756Z,2.80
2023-05-05T15:07:44.656Z,2.80
2023-05-05T15:10:12.088Z,2.90
2023-05-05T15:12:39.448Z,2.80
2023-05-05T15:15:08.862Z,2.83
2023-05-05T15:17:37.719Z,2.83
2023-05-05T15:20:07.877Z,2.77
2023-05-05T15:22:34.963Z,2.80
2023-05-05T15:25:01.834Z,2.60
2023-05-05T15:27:28.741Z,2.70
2023-05-05T15:29:55.649Z,2.77
2023-05-05T15:32:22.492Z,3.00
2023-05-05T15:34:50.447Z,3.00
2023-05-05T15:37:17.453Z,2.90
2023-05-05T15:39:44.395Z,2.87
2023-05-05T15:42:11.267Z,3.50
2023-05-05T15:44:38.400Z,2.70
2023-05-05T15:47:06.476Z,3.10
2023-05-05T15:49:33.256Z,2.93
2023-05-05T15:51:59.995Z,3.00
2023-05-05T15:54:26.888Z,3.00
2023-05-05T15:56:53.728Z,2.80
2023-05-05T15:59:20.823Z,3.63
2023-05-05T16:01:47.684Z,2.93
2023-05-05T16:04:14.740Z,2.70
2023-05-05T16:06:41.600Z,3.00
2023-05-05T16:09:08.977Z,3.77
2023-05-05T16:11:37.482Z,3.50
2023-05-05T16:14:04.352Z,2.97
2023-05-05T16:16:31.405Z,3.77
2023-05-05T16:18:58.385Z,2.90
2023-05-05T16:21:25.827Z,3.20
2023-05-05T16:23:52.610Z,3.23
2023-05-05T16:26:19.507Z,3.20
2023-05-05T16:28:46.319Z,3.37
2023-05-05T16:31:13.784Z,3.47
2023-05-05T16:33:41.469Z,3.47
2023-05-05T16:36:12.541Z,3.37
2023-05-05T16:38:40.810Z,3.40
2023-05-05T16:41:08.418Z,3.13
2023-05-05T16:43:39.892Z,3.20
2023-05-05T16:46:06.876Z,3.27
2023-05-05T16:48:33.868Z,2.97
2023-05-05T16:51:00.767Z,3.57
2023-05-05T16:53:27.617Z,3.60
2023-05-05T16:55:54.498Z,3.10
2023-05-05T16:58:23.193Z,3.60
2023-05-05T17:00:50.670Z,3.87
2023-05-05T17:03:18.399Z,4.87
2023-05-05T17:05:48.995Z,4.30
2023-05-05T17:08:16.777Z,4.47
2023-05-05T17:10:45.182Z,5.40
2023-05-05T17:13:14.108Z,3.43
2023-05-05T17:15:41.747Z,3.60
2023-05-05T17:18:08.971Z,3.60
2023-05-05T17:20:36.571Z,3.57
2023-05-05T17:23:03.607Z,6.33
2023-05-05T17:25:30.821Z,4.30
2023-05-05T17:27:58.488Z,3.43
2023-05-05T17:30:26.010Z,3.30
2023-05-05T17:32:52.890Z,3.47
2023-05-05T17:35:20.076Z,3.30
2023-05-05T17:37:47.007Z,4.00
2023-05-05T17:40:13.977Z,3.50
2023-05-05T17:42:40.817Z,3.40
2023-05-05T17:45:08.597Z,3.40
2023-05-05T17:47:36.372Z,3.30
2023-05-05T17:50:03.461Z,3.43
2023-05-05T17:52:30.243Z,3.50
2023-05-05T17:54:57.202Z,3.60
2023-05-05T17:57:24.067Z,3.40
2023-05-05T17:59:52.177Z,3.90
2023-05-05T18:02:19.520Z,4.00
2023-05-05T18:04:46.703Z,3.87
2023-05-05T18:07:14.906Z,4.03
2023-05-05T18:09:42.404Z,4.43
2023-05-05T18:12:09.372Z,4.70
2023-05-05T18:14:36.572Z,4.80
2023-05-05T18:17:03.713Z,5.00
2023-05-05T18:19:30.786Z,4.43
2023-05-05T18:22:00.739Z,3.90
2023-05-05T18:24:28.320Z,4.53
2023-05-05T18:26:55.130Z,4.40
2023-05-05T18:29:22.529Z,4.20
2023-05-05T18:31:53.204Z,3.73
2023-05-05T18:34:21.104Z,4.30
2023-05-05T18:36:51.022Z,3.80
2023-05-05T18:39:18.153Z,4.33
2023-05-05T18:41:45.005Z,3.90
2023-05-05T18:44:11.881Z,3.80
2023-05-05T18:46:38.801Z,3.77
2023-05-05T18:49:05.726Z,3.80
2023-05-05T18:51:32.556Z,4.37
2023-05-05T18:54:01.059Z,4.10
2023-05-05T18:56:27.987Z,4.13
2023-05-05T18:58:54.868Z,3.80
2023-05-05T19:01:21.782Z,4.07
2023-05-05T19:03:48.670Z,3.73
2023-05-05T19:06:16.487Z,3.73
2023-05-05T19:08:44.323Z,4.67
2023-05-05T19:11:11.630Z,4.10
2023-05-05T19:13:39.901Z,4.17
2023-05-05T19:16:07.376Z,4.10
2023-05-05T19:18:34.495Z,3.80
2023-05-05T19:21:01.893Z,4.23
2023-05-05T19:23:28.701Z,4.40
2023-05-05T19:25:55.667Z,4.20
2023-05-05T19:28:22.428Z,4.83
2023-05-05T19:30:49.245Z,4.90
2023-05-05T19:33:16.394Z,5.10
2023-05-05T19:35:44.146Z,5.53
2023-05-05T19:38:11.186Z,5.33
2023-05-05T19:40:38.770Z,5.20
2023-05-05T19:43:05.858Z,4.90
2023-05-05T19:45:33.924Z,4.60
2023-05-05T19:48:01.781Z,4.57
2023-05-05T19:50:30.521Z,4.50
2023-05-05T19:52:57.964Z,5.10
2023-05-05T19:55:24.770Z,4.53
2023-05-05T19:57:51.899Z,4.67
2023-05-05T20:00:19.880Z,4.17
2023-05-05T20:02:48.751Z,4.87
2023-05-05T20:05:17.797Z,4.73
2023-05-05T20:07:46.531Z,5.50
2023-05-05T20:10:13.948Z,5.90
2023-05-05T20:12:48.189Z,4.87
2023-05-05T20:15:18.964Z,5.77
2023-05-05T20:17:47.085Z,4.50
2023-05-05T20:20:19.178Z,4.67
2023-05-05T20:22:58.349Z,5.37
2023-05-05T20:25:25.065Z,4.87
2023-05-05T20:27:51.879Z,4.80
2023-05-05T20:30:18.644Z,5.37
2023-05-05T20:32:45.502Z,4.83
2023-05-05T20:35:13.046Z,4.53
2023-05-05T20:37:39.956Z,4.93
2023-05-05T20:40:07.940Z,5.33
2023-05-05T20:42:35.075Z,4.97
2023-05-05T20:45:02.472Z,5.13
2023-05-05T20:47:29.317Z,5.33
2023-05-05T20:49:56.404Z,4.97
2023-05-05T20:52:23.285Z,5.30
2023-05-05T20:54:50.007Z,5.80
2023-05-05T20:57:16.841Z,5.93
2023-05-05T20:59:43.689Z,5.33
2023-05-05T21:02:10.530Z,5.53
2023-05-05T21:04:37.546Z,5.10
2023-05-05T21:07:04.500Z,5.10
2023-05-05T21:09:31.824Z,4.73
2023-05-05T21:11:59.154Z,4.60
2023-05-05T21:14:25.992Z,4.73
2023-05-05T21:16:52.930Z,4.77
2023-05-05T21:19:19.720Z,4.77
2023-05-05T21:21:46.495Z,4.90
2023-05-05T21:24:13.275Z,4.27
2023-05-05T21:26:44.652Z,4.30
2023-05-05T21:29:12.072Z,4.67
2023-05-05T21:31:41.896Z,5.10
2023-05-05T21:34:08.700Z,4.30
2023-05-05T21:36:36.550Z,4.73
2023-05-05T21:39:03.408Z,4.33
2023-05-05T21:41:30.492Z,4.60
2023-05-05T21:43:58.228Z,4.17
2023-05-05T21:46:25.048Z,4.20
2023-05-05T21:48:51.885Z,5.10
2023-05-05T21:51:19.783Z,4.90
2023-05-05T21:53:46.493Z,4.80
2023-05-05T21:56:13.333Z,5.10
2023-05-05T21:58:41.302Z,5.07
2023-05-05T22:01:08.164Z,5.50
2023-05-05T22:03:35.656Z,5.20
2023-05-05T22:06:02.886Z,5.30
2023-05-05T22:08:29.718Z,5.50
2023-05-05T22:10:56.448Z,5.00
2023-05-05T22:13:23.333Z,5.37
2023-05-05T22:15:50.454Z,5.47
2023-05-05T22:18:17.331Z,5.70
2023-05-05T22:20:44.173Z,5.57
2023-05-05T22:23:10.910Z,6.27
2023-05-05T22:25:37.690Z,5.90
2023-05-05T22:28:04.734Z,5.20
2023-05-05T22:30:31.574Z,5.20
2023-05-05T22:32:58.367Z,5.20
2023-05-05T22:35:25.249Z,4.13
2023-05-05T22:37:51.969Z,4.73
2023-05-05T22:40:18.778Z,3.93
2023-05-05T22:42:45.604Z,3.33
2023-05-05T22:45:13.381Z,3.57
2023-05-05T22:47:40.145Z,4.30
2023-05-05T22:50:08.157Z,3.80
2023-05-05T22:52:35.084Z,3.90
2023-05-05T22:55:01.976Z,3.77
2023-05-05T22:57:28.744Z,3.50
2023-05-05T22:59:55.606Z,3.57
2023-05-05T23:02:22.905Z,3.90
2023-05-05T23:04:50.069Z,3.90
2023-05-05T23:07:16.844Z,4.30
2023-05-05T23:09:43.560Z,4.70
2023-05-05T23:12:10.438Z,4.67
2023-05-05T23:14:37.263Z,4.83
2023-05-05T23:17:04.250Z,4.60
2023-05-05T23:19:32.757Z,4.60
2023-05-05T23:21:59.944Z,4.83
2023-05-05T23:24:27.995Z,4.70
2023-05-05T23:26:56.381Z,4.40
2023-05-05T23:29:23.113Z,5.13
2023-05-05T23:31:49.887Z,4.50
2023-05-05T23:34:16.774Z,4.90
2023-05-05T23:36:43.602Z,4.77
2023-05-05T23:39:10.472Z,5.37
2023-05-05T23:41:37.454Z,5.10
2023-05-05T23:44:04.395Z,4.80
2023-05-05T23:46:31.275Z,4.90
2023-05-05T23:48:57.983Z,5.20
2023-05-05T23:51:24.844Z,5.67
2023-05-05T23:53:51.803Z,5.60
2023-05-05T23:56:18.694Z,6.27
2023-05-05T23:58:45.419Z,5.17
